sensor_id;sensor_type;location;lat;lon;timestamp;pressure;altitude;pressure_sealevel;temperature;humidity
8416;BME280;4245;42.120;24.732;2023-06-14T00:00:45;98934.84;;;23.77;100.00
8416;BME280;4245;42.120;24.732;2023-06-14T00:03:15;98934.63;;;23.72;100.00
8416;BME280;4245;42.120;24.732;2023-06-14T00:05:43;98928.06;;;23.60;100.00
8416;BME280;4245;42.120;24.732;2023-06-14T00:08:12;98928.69;;;23.55;100.00
8416;BME280;4245;42.120;24.732;2023-06-14T00:10:39;98918.75;;;23.41;100.00
8416;BME280;4245;42.120;24.732;2023-06-14T00:13:07;98922.59;;;23.47;100.00
8416;BME280;4245;42.120;24.732;2023-06-14T00:15:34;98925.72;;;23.50;100.00
8416;BME280;4245;42.120;24.732;2023-06-14T00:18:02;98930.31;;;23.50;100.00
8416;BME280;4245;42.120;24.732;2023-06-14T00:20:32;98930.31;;;23.50;100.00
8416;BME280;4245;42.120;24.732;2023-06-14T00:22:59;98927.34;;;23.45;100.00
8416;BME280;4245;42.120;24.732;2023-06-14T00:25:26;98925.06;;;23.48;100.00
8416;BME280;4245;42.120;24.732;2023-06-14T00:27:53;98923.50;;;23.60;100.00
8416;BME280;4245;42.120;24.732;2023-06-14T00:30:20;98923.41;;;23.47;100.00
8416;BME280;4245;42.120;24.732;2023-06-14T00:32:47;98922.78;;;23.24;100.00
8416;BME280;4245;42.120;24.732;2023-06-14T00:35:14;98926.81;;;23.28;100.00
8416;BME280;4245;42.120;24.732;2023-06-14T00:37:42;98921.66;;;23.12;100.00
8416;BME280;4245;42.120;24.732;2023-06-14T00:40:09;98917.81;;;23.27;100.00
8416;BME280;4245;42.120;24.732;2023-06-14T00:42:36;98917.41;;;23.30;100.00
8416;BME280;4245;42.120;24.732;2023-06-14T00:45:03;98913.84;;;23.23;100.00
8416;BME280;4245;42.120;24.732;2023-06-14T00:47:30;98913.50;;;23.33;100.00
8416;BME280;4245;42.120;24.732;2023-06-14T00:49:57;98904.94;;;23.36;100.00
8416;BME280;4245;42.120;24.732;2023-06-14T00:52:25;98904.06;;;23.29;100.00
8416;BME280;4245;42.120;24.732;2023-06-14T00:54:53;98906.50;;;23.17;100.00
8416;BME280;4245;42.120;24.732;2023-06-14T00:57:20;98898.00;;;23.27;100.00
8416;BME280;4245;42.120;24.732;2023-06-14T00:59:49;98895.91;;;23.22;100.00
8416;BME280;4245;42.120;24.732;2023-06-14T01:02:17;98903.59;;;23.47;100.00
8416;BME280;4245;42.120;24.732;2023-06-14T01:04:46;98905.13;;;23.56;100.00
8416;BME280;4245;42.120;24.732;2023-06-14T01:07:20;98902.59;;;23.54;100.00
8416;BME280;4245;42.120;24.732;2023-06-14T01:10:02;98893.19;;;23.50;100.00
8416;BME280;4245;42.120;24.732;2023-06-14T01:12:37;98900.06;;;23.46;100.00
8416;BME280;4245;42.120;24.732;2023-06-14T01:15:07;98902.91;;;23.38;100.00
8416;BME280;4245;42.120;24.732;2023-06-14T01:17:35;98900.31;;;23.30;100.00
8416;BME280;4245;42.120;24.732;2023-06-14T01:20:08;98895.78;;;23.37;100.00
8416;BME280;4245;42.120;24.732;2023-06-14T01:22:50;98899.69;;;23.56;100.00
8416;BME280;4245;42.120;24.732;2023-06-14T01:25:17;98897.16;;;23.48;100.00
8416;BME280;4245;42.120;24.732;2023-06-14T01:27:47;98905.34;;;23.61;100.00
8416;BME280;4245;42.120;24.732;2023-06-14T01:30:16;98903.50;;;23.68;100.00
8416;BME280;4245;42.120;24.732;2023-06-14T01:32:44;98903.97;;;23.71;100.00
8416;BME280;4245;42.120;24.732;2023-06-14T01:35:12;98902.09;;;23.72;100.00
8416;BME280;4245;42.120;24.732;2023-06-14T01:37:39;98899.34;;;23.65;100.00
8416;BME280;4245;42.120;24.732;2023-06-14T01:40:09;98900.31;;;23.58;100.00
8416;BME280;4245;42.120;24.732;2023-06-14T01:42:38;98900.53;;;23.56;100.00
8416;BME280;4245;42.120;24.732;2023-06-14T01:45:06;98898.06;;;23.68;100.00
8416;BME280;4245;42.120;24.732;2023-06-14T01:47:33;98905.84;;;23.71;100.00
8416;BME280;4245;42.120;24.732;2023-06-14T01:50:01;98898.78;;;23.76;100.00
8416;BME280;4245;42.120;24.732;2023-06-14T01:52:28;98891.38;;;23.64;100.00
8416;BME280;4245;42.120;24.732;2023-06-14T01:54:55;98894.88;;;23.51;100.00
8416;BME280;4245;42.120;24.732;2023-06-14T01:57:25;98895.66;;;23.45;100.00
8416;BME280;4245;42.120;24.732;2023-06-14T01:59:52;98899.44;;;23.51;100.00
8416;BME280;4245;42.120;24.732;2023-06-14T02:02:19;98890.91;;;23.54;100.00
8416;BME280;4245;42.120;24.732;2023-06-14T02:04:46;98902.91;;;23.38;100.00
8416;BME280;4245;42.120;24.732;2023-06-14T02:07:13;98900.09;;;23.53;100.00
8416;BME280;4245;42.120;24.732;2023-06-14T02:09:40;98900.53;;;23.56;100.00
8416;BME280;4245;42.120;24.732;2023-06-14T02:12:07;98909.94;;;23.60;100.00
8416;BME280;4245;42.120;24.732;2023-06-14T02:14:35;98905.72;;;23.51;100.00
8416;BME280;4245;42.120;24.732;2023-06-14T02:17:04;98902.41;;;23.56;100.00
8416;BME280;4245;42.120;24.732;2023-06-14T02:19:31;98901.97;;;23.52;100.00
8416;BME280;4245;42.120;24.732;2023-06-14T02:21:58;98906.19;;;23.61;100.00
8416;BME280;4245;42.120;24.732;2023-06-14T02:24:25;98903.09;;;23.43;100.00
8416;BME280;4245;42.120;24.732;2023-06-14T02:26:52;98904.28;;;23.27;100.00
8416;BME280;4245;42.120;24.732;2023-06-14T02:29:19;98905.91;;;23.22;100.00
8416;BME280;4245;42.120;24.732;2023-06-14T02:31:47;98908.38;;;22.95;100.00
8416;BME280;4245;42.120;24.732;2023-06-14T02:34:15;98906.16;;;22.78;100.00
8416;BME280;4245;42.120;24.732;2023-06-14T02:36:43;98904.50;;;22.62;100.00
8416;BME280;4245;42.120;24.732;2023-06-14T02:39:10;98909.28;;;22.60;100.00
8416;BME280;4245;42.120;24.732;2023-06-14T02:41:38;98907.00;;;22.78;100.00
8416;BME280;4245;42.120;24.732;2023-06-14T02:44:05;98908.72;;;22.65;100.00
8416;BME280;4245;42.120;24.732;2023-06-14T02:46:32;98906.31;;;22.55;100.00
8416;BME280;4245;42.120;24.732;2023-06-14T02:49:00;98910.56;;;22.43;100.00
8416;BME280;4245;42.120;24.732;2023-06-14T02:51:27;98914.88;;;22.59;100.00
8416;BME280;4245;42.120;24.732;2023-06-14T02:53:54;98914.88;;;22.37;100.00
8416;BME280;4245;42.120;24.732;2023-06-14T02:56:21;98916.84;;;22.29;100.00
8416;BME280;4245;42.120;24.732;2023-06-14T02:58:48;98923.81;;;22.38;100.00
8416;BME280;4245;42.120;24.732;2023-06-14T03:01:16;98917.00;;;22.06;100.00
8416;BME280;4245;42.120;24.732;2023-06-14T03:03:43;98923.84;;;22.02;100.00
8416;BME280;4245;42.120;24.732;2023-06-14T03:06:11;98921.69;;;21.97;100.00
8416;BME280;4245;42.120;24.732;2023-06-14T03:08:39;98921.31;;;22.00;100.00
8416;BME280;4245;42.120;24.732;2023-06-14T03:11:07;98930.34;;;21.93;100.00
8416;BME280;4245;42.120;24.732;2023-06-14T03:13:34;98936.41;;;21.80;100.00
8416;BME280;4245;42.120;24.732;2023-06-14T03:16:00;98934.63;;;21.87;100.00
8416;BME280;4245;42.120;24.732;2023-06-14T03:18:28;98943.09;;;21.84;100.00
8416;BME280;4245;42.120;24.732;2023-06-14T03:20:55;98941.63;;;21.82;100.00
8416;BME280;4245;42.120;24.732;2023-06-14T03:23:25;98938.75;;;21.54;100.00
8416;BME280;4245;42.120;24.732;2023-06-14T03:25:52;98944.78;;;21.71;100.00
8416;BME280;4245;42.120;24.732;2023-06-14T03:28:18;98937.88;;;21.39;100.00
8416;BME280;4245;42.120;24.732;2023-06-14T03:30:45;98942.53;;;21.07;100.00
8416;BME280;4245;42.120;24.732;2023-06-14T03:33:12;98940.47;;;20.95;100.00
8416;BME280;4245;42.120;24.732;2023-06-14T03:35:39;98943.34;;;21.31;100.00
8416;BME280;4245;42.120;24.732;2023-06-14T03:38:05;98950.22;;;21.18;100.00
8416;BME280;4245;42.120;24.732;2023-06-14T03:40:34;98965.31;;;20.90;100.00
8416;BME280;4245;42.120;24.732;2023-06-14T03:43:00;98954.97;;;20.94;100.00
8416;BME280;4245;42.120;24.732;2023-06-14T03:45:27;98960.28;;;21.02;100.00
8416;BME280;4245;42.120;24.732;2023-06-14T03:47:54;98957.50;;;21.18;100.00
8416;BME280;4245;42.120;24.732;2023-06-14T03:50:23;98967.50;;;21.09;100.00
8416;BME280;4245;42.120;24.732;2023-06-14T03:52:49;98964.44;;;21.12;100.00
8416;BME280;4245;42.120;24.732;2023-06-14T03:55:16;98983.34;;;21.50;100.00
8416;BME280;4245;42.120;24.732;2023-06-14T03:57:44;98973.56;;;21.34;100.00
8416;BME280;4245;42.120;24.732;2023-06-14T04:00:12;98969.59;;;21.22;100.00
8416;BME280;4245;42.120;24.732;2023-06-14T04:02:40;98975.09;;;21.14;100.00
8416;BME280;4245;42.120;24.732;2023-06-14T04:05:07;98981.81;;;21.18;100.00
8416;BME280;4245;42.120;24.732;2023-06-14T04:07:34;98977.47;;;21.32;100.00
8416;BME280;4245;42.120;24.732;2023-06-14T04:10:06;98981.47;;;21.13;100.00
8416;BME280;4245;42.120;24.732;2023-06-14T04:12:33;98983.91;;;20.85;100.00
8416;BME280;4245;42.120;24.732;2023-06-14T04:15:02;98984.78;;;20.55;100.00
8416;BME280;4245;42.120;24.732;2023-06-14T04:17:31;98985.03;;;20.29;100.00
8416;BME280;4245;42.120;24.732;2023-06-14T04:19:58;98992.38;;;20.51;100.00
8416;BME280;4245;42.120;24.732;2023-06-14T04:22:25;98981.13;;;20.70;100.00
8416;BME280;4245;42.120;24.732;2023-06-14T04:24:53;98984.78;;;20.77;100.00
8416;BME280;4245;42.120;24.732;2023-06-14T04:27:21;98989.44;;;21.14;100.00
8416;BME280;4245;42.120;24.732;2023-06-14T04:29:50;98996.38;;;21.09;100.00
8416;BME280;4245;42.120;24.732;2023-06-14T04:32:23;98989.66;;;21.28;100.00
8416;BME280;4245;42.120;24.732;2023-06-14T04:34:51;98993.03;;;21.30;100.00
8416;BME280;4245;42.120;24.732;2023-06-14T04:37:19;98987.72;;;21.36;100.00
8416;BME280;4245;42.120;24.732;2023-06-14T04:39:46;98996.25;;;21.62;100.00
8416;BME280;4245;42.120;24.732;2023-06-14T04:42:13;99000.56;;;21.86;100.00
8416;BME280;4245;42.120;24.732;2023-06-14T04:44:41;99002.91;;;22.04;100.00
8416;BME280;4245;42.120;24.732;2023-06-14T04:47:08;99007.81;;;21.71;100.00
8416;BME280;4245;42.120;24.732;2023-06-14T04:49:38;98999.94;;;21.47;100.00
8416;BME280;4245;42.120;24.732;2023-06-14T04:52:06;99004.16;;;21.49;100.00
8416;BME280;4245;42.120;24.732;2023-06-14T04:54:33;98999.88;;;21.69;100.00
8416;BME280;4245;42.120;24.732;2023-06-14T04:57:02;99009.63;;;21.93;100.00
8416;BME280;4245;42.120;24.732;2023-06-14T04:59:29;99000.41;;;22.02;100.00
8416;BME280;4245;42.120;24.732;2023-06-14T05:01:59;99009.72;;;22.15;100.00
8416;BME280;4245;42.120;24.732;2023-06-14T05:04:26;99010.28;;;21.95;100.00
8416;BME280;4245;42.120;24.732;2023-06-14T05:06:54;99007.84;;;22.00;100.00
8416;BME280;4245;42.120;24.732;2023-06-14T05:09:22;99011.28;;;22.24;100.00
8416;BME280;4245;42.120;24.732;2023-06-14T05:11:48;99018.38;;;22.39;100.00
8416;BME280;4245;42.120;24.732;2023-06-14T05:14:16;99021.50;;;22.58;100.00
8416;BME280;4245;42.120;24.732;2023-06-14T05:16:43;99022.47;;;22.86;100.00
8416;BME280;4245;42.120;24.732;2023-06-14T05:19:10;99031.56;;;23.00;100.00
8416;BME280;4245;42.120;24.732;2023-06-14T05:21:37;99031.50;;;23.14;100.00
8416;BME280;4245;42.120;24.732;2023-06-14T05:24:06;99034.56;;;23.26;100.00
8416;BME280;4245;42.120;24.732;2023-06-14T05:26:34;99037.47;;;23.46;100.00
8416;BME280;4245;42.120;24.732;2023-06-14T05:29:01;99041.13;;;23.38;100.00
8416;BME280;4245;42.120;24.732;2023-06-14T05:31:28;99034.09;;;23.22;100.00
8416;BME280;4245;42.120;24.732;2023-06-14T05:33:55;99040.47;;;23.36;100.00
8416;BME280;4245;42.120;24.732;2023-06-14T05:36:22;99042.06;;;23.73;100.00
8416;BME280;4245;42.120;24.732;2023-06-14T05:38:49;99044.50;;;23.61;100.00
8416;BME280;4245;42.120;24.732;2023-06-14T05:41:17;99040.63;;;23.77;100.00
8416;BME280;4245;42.120;24.732;2023-06-14T05:43:46;99052.28;;;23.99;100.00
8416;BME280;4245;42.120;24.732;2023-06-14T05:46:12;99053.84;;;24.14;100.00
8416;BME280;4245;42.120;24.732;2023-06-14T05:48:40;99056.78;;;23.92;100.00
8416;BME280;4245;42.120;24.732;2023-06-14T05:51:06;99066.13;;;23.82;100.00
8416;BME280;4245;42.120;24.732;2023-06-14T05:53:34;99062.09;;;23.72;100.00
8416;BME280;4245;42.120;24.732;2023-06-14T05:56:01;99060.00;;;24.02;100.00
8416;BME280;4245;42.120;24.732;2023-06-14T05:58:29;99064.31;;;23.90;100.00
8416;BME280;4245;42.120;24.732;2023-06-14T06:00:56;99068.31;;;23.66;100.00
8416;BME280;4245;42.120;24.732;2023-06-14T06:03:23;99066.25;;;23.47;100.00
8416;BME280;4245;42.120;24.732;2023-06-14T06:05:50;99069.06;;;23.38;100.00
8416;BME280;4245;42.120;24.732;2023-06-14T06:08:17;99067.72;;;23.07;100.00
8416;BME280;4245;42.120;24.732;2023-06-14T06:10:44;99055.03;;;23.28;100.00
8416;BME280;4245;42.120;24.732;2023-06-14T06:13:10;99060.88;;;23.53;100.00
8416;BME280;4245;42.120;24.732;2023-06-14T06:15:38;99055.97;;;23.91;100.00
8416;BME280;4245;42.120;24.732;2023-06-14T06:18:05;99060.75;;;23.89;100.00
8416;BME280;4245;42.120;24.732;2023-06-14T06:20:33;99062.81;;;23.87;100.00
8416;BME280;4245;42.120;24.732;2023-06-14T06:22:59;99062.72;;;24.02;100.00
8416;BME280;4245;42.120;24.732;2023-06-14T06:25:26;99067.25;;;24.57;100.00
8416;BME280;4245;42.120;24.732;2023-06-14T06:27:53;99063.34;;;24.73;100.00
8416;BME280;4245;42.120;24.732;2023-06-14T06:30:21;99070.41;;;25.21;100.00
8416;BME280;4245;42.120;24.732;2023-06-14T06:32:49;99068.19;;;25.64;100.00
8416;BME280;4245;42.120;24.732;2023-06-14T06:35:16;99072.38;;;25.73;100.00
8416;BME280;4245;42.120;24.732;2023-06-14T06:37:43;99072.34;;;25.86;100.00
8416;BME280;4245;42.120;24.732;2023-06-14T06:40:10;99081.94;;;26.15;100.00
8416;BME280;4245;42.120;24.732;2023-06-14T06:42:38;99078.38;;;26.34;100.00
8416;BME280;4245;42.120;24.732;2023-06-14T06:47:40;99077.34;;;26.35;100.00
8416;BME280;4245;42.120;24.732;2023-06-14T06:50:08;99081.34;;;26.33;100.00
8416;BME280;4245;42.120;24.732;2023-06-14T06:52:35;99092.78;;;26.61;100.00
8416;BME280;4245;42.120;24.732;2023-06-14T06:55:02;99082.56;;;26.37;100.00
8416;BME280;4245;42.120;24.732;2023-06-14T06:57:29;99079.59;;;26.45;100.00
8416;BME280;4245;42.120;24.732;2023-06-14T06:59:57;99083.00;;;26.92;100.00
8416;BME280;4245;42.120;24.732;2023-06-14T07:02:24;99091.81;;;27.32;100.00
8416;BME280;4245;42.120;24.732;2023-06-14T07:04:51;99094.97;;;27.66;100.00
8416;BME280;4245;42.120;24.732;2023-06-14T07:07:19;99092.84;;;27.69;100.00
8416;BME280;4245;42.120;24.732;2023-06-14T07:09:46;99086.63;;;28.11;100.00
8416;BME280;4245;42.120;24.732;2023-06-14T07:12:13;99089.34;;;28.11;95.26
8416;BME280;4245;42.120;24.732;2023-06-14T07:14:39;99087.13;;;28.44;89.29
8416;BME280;4245;42.120;24.732;2023-06-14T07:17:06;99087.31;;;28.25;82.72
8416;BME280;4245;42.120;24.732;2023-06-14T07:19:33;99082.53;;;28.38;82.40
8416;BME280;4245;42.120;24.732;2023-06-14T07:22:00;99079.38;;;28.78;78.49
8416;BME280;4245;42.120;24.732;2023-06-14T07:24:28;99079.41;;;29.08;75.25
8416;BME280;4245;42.120;24.732;2023-06-14T07:26:55;99080.53;;;29.18;72.99
8416;BME280;4245;42.120;24.732;2023-06-14T07:29:21;99083.47;;;29.35;69.17
8416;BME280;4245;42.120;24.732;2023-06-14T07:31:48;99074.16;;;29.66;67.63
8416;BME280;4245;42.120;24.732;2023-06-14T07:34:15;99074.81;;;29.91;65.92
8416;BME280;4245;42.120;24.732;2023-06-14T07:36:42;99077.84;;;29.71;66.71
8416;BME280;4245;42.120;24.732;2023-06-14T07:39:10;99081.63;;;29.47;69.09
8416;BME280;4245;42.120;24.732;2023-06-14T07:41:38;99073.53;;;29.52;67.22
8416;BME280;4245;42.120;24.732;2023-06-14T07:44:05;99075.22;;;29.65;67.47
8416;BME280;4245;42.120;24.732;2023-06-14T07:46:32;99069.91;;;29.40;69.01
8416;BME280;4245;42.120;24.732;2023-06-14T07:49:00;99072.25;;;29.66;68.01
8416;BME280;4245;42.120;24.732;2023-06-14T07:51:26;99076.78;;;29.84;66.63
8416;BME280;4245;42.120;24.732;2023-06-14T07:53:53;99072.19;;;29.96;66.58
8416;BME280;4245;42.120;24.732;2023-06-14T07:56:20;99075.28;;;30.23;62.75
8416;BME280;4245;42.120;24.732;2023-06-14T07:58:48;99073.50;;;29.94;62.88
8416;BME280;4245;42.120;24.732;2023-06-14T08:01:15;99077.81;;;29.18;68.32
8416;BME280;4245;42.120;24.732;2023-06-14T08:03:42;99080.06;;;29.63;67.50
8416;BME280;4245;42.120;24.732;2023-06-14T08:06:09;99084.34;;;30.00;65.39
8416;BME280;4245;42.120;24.732;2023-06-14T08:08:36;99074.06;;;29.84;66.79
8416;BME280;4245;42.120;24.732;2023-06-14T08:11:03;99086.19;;;29.88;66.57
8416;BME280;4245;42.120;24.732;2023-06-14T08:13:30;99082.19;;;29.91;66.13
8416;BME280;4245;42.120;24.732;2023-06-14T08:15:58;99087.25;;;29.75;67.39
8416;BME280;4245;42.120;24.732;2023-06-14T08:18:26;99095.41;;;30.17;65.56
8416;BME280;4245;42.120;24.732;2023-06-14T08:20:53;99099.09;;;30.22;64.71
8416;BME280;4245;42.120;24.732;2023-06-14T08:23:20;99099.00;;;30.06;65.46
8416;BME280;4245;42.120;24.732;2023-06-14T08:25:47;99100.28;;;30.38;64.61
8416;BME280;4245;42.120;24.732;2023-06-14T08:28:14;99104.72;;;30.62;63.37
8416;BME280;4245;42.120;24.732;2023-06-14T08:30:42;99109.06;;;30.75;61.33
8416;BME280;4245;42.120;24.732;2023-06-14T08:33:10;99104.00;;;30.55;62.32
8416;BME280;4245;42.120;24.732;2023-06-14T08:35:37;99102.47;;;30.48;63.61
8416;BME280;4245;42.120;24.732;2023-06-14T08:38:05;99111.94;;;30.80;62.15
8416;BME280;4245;42.120;24.732;2023-06-14T08:40:36;99106.53;;;30.97;61.11
8416;BME280;4245;42.120;24.732;2023-06-14T08:43:03;99116.78;;;30.90;60.46
8416;BME280;4245;42.120;24.732;2023-06-14T08:45:31;99110.53;;;30.31;63.20
8416;BME280;4245;42.120;24.732;2023-06-14T08:47:58;99110.53;;;30.66;60.76
8416;BME280;4245;42.120;24.732;2023-06-14T08:50:27;99115.56;;;30.34;62.48
8416;BME280;4245;42.120;24.732;2023-06-14T08:52:56;99111.41;;;30.95;59.36
8416;BME280;4245;42.120;24.732;2023-06-14T08:55:26;99118.81;;;30.94;59.75
8416;BME280;4245;42.120;24.732;2023-06-14T08:57:55;99109.50;;;30.95;59.89
8416;BME280;4245;42.120;24.732;2023-06-14T09:00:23;99112.66;;;31.27;58.94
8416;BME280;4245;42.120;24.732;2023-06-14T09:02:50;99113.75;;;31.43;58.00
8416;BME280;4245;42.120;24.732;2023-06-14T09:05:21;99115.94;;;31.13;57.37
8416;BME280;4245;42.120;24.732;2023-06-14T09:07:50;99108.13;;;30.81;59.18
8416;BME280;4245;42.120;24.732;2023-06-14T09:10:18;99110.88;;;30.81;59.49
8416;BME280;4245;42.120;24.732;2023-06-14T09:12:45;99109.75;;;30.54;60.50
8416;BME280;4245;42.120;24.732;2023-06-14T09:15:12;99101.59;;;30.36;61.34
8416;BME280;4245;42.120;24.732;2023-06-14T09:17:39;99104.34;;;30.24;61.84
8416;BME280;4245;42.120;24.732;2023-06-14T09:20:08;99100.16;;;29.98;62.35
8416;BME280;4245;42.120;24.732;2023-06-14T09:22:36;99096.72;;;29.91;63.21
8416;BME280;4245;42.120;24.732;2023-06-14T09:25:05;99093.97;;;30.03;62.55
8416;BME280;4245;42.120;24.732;2023-06-14T09:27:33;99097.41;;;29.87;63.33
8416;BME280;4245;42.120;24.732;2023-06-14T09:30:01;99093.97;;;29.50;65.27
8416;BME280;4245;42.120;24.732;2023-06-14T09:32:28;99092.31;;;29.49;64.83
8416;BME280;4245;42.120;24.732;2023-06-14T09:34:56;99085.06;;;29.43;65.13
8416;BME280;4245;42.120;24.732;2023-06-14T09:37:27;99089.63;;;29.30;63.74
8416;BME280;4245;42.120;24.732;2023-06-14T09:39:55;99090.44;;;29.01;65.42
8416;BME280;4245;42.120;24.732;2023-06-14T09:42:23;99088.09;;;28.86;65.12
8416;BME280;4245;42.120;24.732;2023-06-14T09:44:53;99087.75;;;28.83;65.31
8416;BME280;4245;42.120;24.732;2023-06-14T09:47:21;99087.06;;;28.51;67.34
8416;BME280;4245;42.120;24.732;2023-06-14T09:49:48;99079.81;;;28.57;67.81
8416;BME280;4245;42.120;24.732;2023-06-14T09:52:18;99085.09;;;27.65;76.40
8416;BME280;4245;42.120;24.732;2023-06-14T09:54:46;99085.88;;;27.10;83.13
8416;BME280;4245;42.120;24.732;2023-06-14T09:57:14;99080.78;;;26.69;85.93
8416;BME280;4245;42.120;24.732;2023-06-14T09:59:43;99075.78;;;26.59;89.94
8416;BME280;4245;42.120;24.732;2023-06-14T10:02:16;99071.81;;;26.62;94.24
8416;BME280;4245;42.120;24.732;2023-06-14T10:04:49;99068.38;;;26.02;100.00
8416;BME280;4245;42.120;24.732;2023-06-14T10:07:20;99063.56;;;25.98;100.00
8416;BME280;4245;42.120;24.732;2023-06-14T10:09:47;99069.16;;;26.29;100.00
8416;BME280;4245;42.120;24.732;2023-06-14T10:12:16;99073.06;;;26.66;94.57
8416;BME280;4245;42.120;24.732;2023-06-14T10:14:49;99070.13;;;27.43;83.66
8416;BME280;4245;42.120;24.732;2023-06-14T10:17:24;99071.94;;;27.81;81.78
8416;BME280;4245;42.120;24.732;2023-06-14T10:19:56;99066.41;;;28.37;76.59
8416;BME280;4245;42.120;24.732;2023-06-14T10:22:32;99070.50;;;28.82;74.79
8416;BME280;4245;42.120;24.732;2023-06-14T10:25:01;99069.84;;;29.58;69.78
8416;BME280;4245;42.120;24.732;2023-06-14T10:27:28;99066.16;;;29.64;68.44
8416;BME280;4245;42.120;24.732;2023-06-14T10:30:05;99065.69;;;29.56;67.30
8416;BME280;4245;42.120;24.732;2023-06-14T10:32:33;99062.44;;;29.17;69.78
8416;BME280;4245;42.120;24.732;2023-06-14T10:35:04;99060.09;;;29.62;68.11
8416;BME280;4245;42.120;24.732;2023-06-14T10:37:30;99063.19;;;29.77;67.88
8416;BME280;4245;42.120;24.732;2023-06-14T10:39:57;99062.00;;;29.62;68.99
8416;BME280;4245;42.120;24.732;2023-06-14T10:42:28;99067.34;;;29.57;69.21
8416;BME280;4245;42.120;24.732;2023-06-14T10:44:58;99060.28;;;29.08;71.16
8416;BME280;4245;42.120;24.732;2023-06-14T10:47:28;99065.09;;;28.58;71.81
8416;BME280;4245;42.120;24.732;2023-06-14T10:49:56;99060.03;;;28.79;69.58
8416;BME280;4245;42.120;24.732;2023-06-14T10:52:26;99057.44;;;28.84;68.60
8416;BME280;4245;42.120;24.732;2023-06-14T10:55:08;99054.09;;;29.12;68.26
8416;BME280;4245;42.120;24.732;2023-06-14T10:57:37;99054.41;;;29.87;64.53
8416;BME280;4245;42.120;24.732;2023-06-14T11:00:05;99044.91;;;30.13;62.01
8416;BME280;4245;42.120;24.732;2023-06-14T11:05:50;99051.34;;;29.95;63.30
8416;BME280;4245;42.120;24.732;2023-06-14T11:11:17;99046.53;;;29.79;62.88
8416;BME280;4245;42.120;24.732;2023-06-14T11:13:45;99045.03;;;30.30;60.13
8416;BME280;4245;42.120;24.732;2023-06-14T11:16:12;99050.84;;;30.85;56.77
8416;BME280;4245;42.120;24.732;2023-06-14T11:18:40;99054.03;;;31.05;55.74
8416;BME280;4245;42.120;24.732;2023-06-14T11:21:09;99047.13;;;31.31;55.67
8416;BME280;4245;42.120;24.732;2023-06-14T11:23:36;99039.81;;;31.53;55.20
8416;BME280;4245;42.120;24.732;2023-06-14T11:26:03;99043.91;;;32.17;52.68
8416;BME280;4245;42.120;24.732;2023-06-14T11:28:37;99030.06;;;32.51;52.81
8416;BME280;4245;42.120;24.732;2023-06-14T11:31:04;99033.97;;;33.20;50.36
8416;BME280;4245;42.120;24.732;2023-06-14T11:33:31;99032.28;;;33.46;48.86
8416;BME280;4245;42.120;24.732;2023-06-14T11:35:58;99035.81;;;33.41;48.45
8416;BME280;4245;42.120;24.732;2023-06-14T11:38:26;99041.97;;;34.17;46.87
8416;BME280;4245;42.120;24.732;2023-06-14T11:40:53;99030.88;;;34.07;46.72
8416;BME280;4245;42.120;24.732;2023-06-14T11:43:25;99029.22;;;34.11;46.58
8416;BME280;4245;42.120;24.732;2023-06-14T11:45:52;99030.53;;;34.03;47.78
8416;BME280;4245;42.120;24.732;2023-06-14T11:48:19;99020.50;;;34.76;46.85
8416;BME280;4245;42.120;24.732;2023-06-14T11:50:49;99023.41;;;35.22;45.11
8416;BME280;4245;42.120;24.732;2023-06-14T11:53:16;99020.13;;;34.58;46.47
8416;BME280;4245;42.120;24.732;2023-06-14T11:55:45;99014.31;;;34.54;47.04
8416;BME280;4245;42.120;24.732;2023-06-14T11:58:13;99015.13;;;35.22;44.89
8416;BME280;4245;42.120;24.732;2023-06-14T12:00:39;99013.22;;;35.43;43.05
8416;BME280;4245;42.120;24.732;2023-06-14T12:03:07;99011.28;;;35.89;42.48
8416;BME280;4245;42.120;24.732;2023-06-14T12:05:34;99018.72;;;36.08;40.78
8416;BME280;4245;42.120;24.732;2023-06-14T12:08:02;99007.97;;;35.97;41.34
8416;BME280;4245;42.120;24.732;2023-06-14T12:10:39;99014.59;;;36.16;40.28
8416;BME280;4245;42.120;24.732;2023-06-14T12:13:10;99012.75;;;34.73;44.30
8416;BME280;4245;42.120;24.732;2023-06-14T12:15:37;99006.72;;;34.81;43.61
8416;BME280;4245;42.120;24.732;2023-06-14T12:18:05;98992.97;;;34.29;45.01
8416;BME280;4245;42.120;24.732;2023-06-14T12:20:33;98997.59;;;34.81;45.08
8416;BME280;4245;42.120;24.732;2023-06-14T12:23:03;98990.84;;;35.24;44.65
8416;BME280;4245;42.120;24.732;2023-06-14T12:25:32;98990.56;;;35.96;42.88
8416;BME280;4245;42.120;24.732;2023-06-14T12:28:04;98993.00;;;36.18;42.00
8416;BME280;4245;42.120;24.732;2023-06-14T12:30:32;98982.69;;;36.44;41.70
8416;BME280;4245;42.120;24.732;2023-06-14T12:33:01;98989.75;;;35.76;41.62
8416;BME280;4245;42.120;24.732;2023-06-14T12:35:28;98986.56;;;34.76;42.27
8416;BME280;4245;42.120;24.732;2023-06-14T12:37:55;98974.13;;;33.69;44.86
8416;BME280;4245;42.120;24.732;2023-06-14T12:40:22;98976.75;;;33.27;45.79
8416;BME280;4245;42.120;24.732;2023-06-14T12:42:50;98965.53;;;33.07;45.25
8416;BME280;4245;42.120;24.732;2023-06-14T12:45:17;98963.28;;;33.26;45.14
8416;BME280;4245;42.120;24.732;2023-06-14T12:47:45;98963.47;;;33.51;45.30
8416;BME280;4245;42.120;24.732;2023-06-14T12:50:12;98953.38;;;34.03;44.52
8416;BME280;4245;42.120;24.732;2023-06-14T12:52:39;98958.41;;;34.79;42.95
8416;BME280;4245;42.120;24.732;2023-06-14T12:55:06;98961.25;;;35.29;41.12
8416;BME280;4245;42.120;24.732;2023-06-14T12:57:33;98951.31;;;35.13;41.49
8416;BME280;4245;42.120;24.732;2023-06-14T13:00:02;98950.22;;;35.45;39.99
8416;BME280;4245;42.120;24.732;2023-06-14T13:02:29;98953.81;;;35.76;39.91
8416;BME280;4245;42.120;24.732;2023-06-14T13:04:58;98959.16;;;34.59;42.44
8416;BME280;4245;42.120;24.732;2023-06-14T13:07:25;98945.06;;;34.45;42.15
8416;BME280;4245;42.120;24.732;2023-06-14T13:09:54;98952.84;;;34.64;41.06
8416;BME280;4245;42.120;24.732;2023-06-14T13:12:21;98950.97;;;34.17;43.21
8416;BME280;4245;42.120;24.732;2023-06-14T13:14:49;98945.06;;;34.51;42.49
8416;BME280;4245;42.120;24.732;2023-06-14T13:17:16;98951.59;;;34.29;42.00